createdAt,value
2022-12-07T00:01:17.365Z,100263.66
2022-12-07T00:03:19.312Z,100266.72
2022-12-07T00:05:21.090Z,100263.34
2022-12-07T00:07:27.679Z,100261.97
2022-12-07T00:09:29.889Z,100257.16
2022-12-07T00:11:32.732Z,100260.72
2022-12-07T00:13:36.039Z,100263.09
2022-12-07T00:15:38.065Z,100260.47
2022-12-07T00:17:39.834Z,100260.16
2022-12-07T00:19:41.694Z,100261.00
2022-12-07T00:21:43.813Z,100263.72
2022-12-07T00:23:47.785Z,100255.25
2022-12-07T00:25:49.601Z,100254.75
2022-12-07T00:27:51.321Z,100255.97
2022-12-07T00:29:53.004Z,100265.84
2022-12-07T00:31:54.883Z,100249.84
2022-12-07T00:33:58.172Z,100263.22
2022-12-07T00:36:00.369Z,100255.03
2022-12-07T00:38:02.098Z,100251.91
2022-12-07T00:40:04.282Z,100248.75
2022-12-07T00:42:06.108Z,100241.44
2022-12-07T00:44:07.926Z,100252.03
2022-12-07T00:46:10.476Z,100243.13
2022-12-07T00:48:12.354Z,100245.00
2022-12-07T00:50:14.064Z,100243.13
2022-12-07T00:52:15.885Z,100239.66
2022-12-07T00:54:17.631Z,100237.06
2022-12-07T00:56:28.126Z,100236.78
2022-12-07T00:58:29.910Z,100237.16
2022-12-07T01:00:31.739Z,100229.59
2022-12-07T01:02:33.763Z,100227.16
2022-12-07T01:04:35.806Z,100228.94
2022-12-07T01:06:37.518Z,100232.66
2022-12-07T01:08:39.299Z,100230.53
2022-12-07T01:10:41.150Z,100232.41
2022-12-07T01:12:43.031Z,100224.72
2022-12-07T01:14:44.907Z,100227.34
2022-12-07T01:16:46.903Z,100223.69
2022-12-07T01:18:50.619Z,100222.56
2022-12-07T01:21:02.436Z,100222.44
2022-12-07T01:23:04.507Z,100218.94
2022-12-07T01:25:07.890Z,100217.63
2022-12-07T01:27:09.605Z,100208.88
2022-12-07T01:29:11.436Z,100219.19
2022-12-07T01:31:19.327Z,100214.50
2022-12-07T01:33:21.229Z,100214.50
2022-12-07T01:35:23.083Z,100213.72
2022-12-07T01:37:24.835Z,100215.47
2022-12-07T01:39:26.540Z,100215.91
2022-12-07T01:41:31.496Z,100215.28
2022-12-07T01:43:34.551Z,100214.25
2022-12-07T01:45:42.017Z,100208.91
2022-12-07T01:47:47.929Z,100211.63
2022-12-07T01:49:50.328Z,100213.31
2022-12-07T01:51:55.709Z,100205.34
2022-12-07T01:53:59.712Z,100203.97
2022-12-07T01:56:01.704Z,100206.91
2022-12-07T01:58:03.606Z,100202.22
2022-12-07T02:00:07.476Z,100206.28
2022-12-07T02:02:18.759Z,100195.28
2022-12-07T02:04:20.949Z,100199.59
2022-12-07T02:06:26.381Z,100202.44
2022-12-07T02:08:28.498Z,100192.91
2022-12-07T02:10:32.665Z,100200.00
2022-12-07T02:12:34.486Z,100196.38
2022-12-07T02:14:36.444Z,100196.78
2022-12-07T02:16:58.516Z,100191.56
2022-12-07T02:19:51.186Z,100190.63
2022-12-07T02:22:07.949Z,100192.81
2022-12-07T02:24:09.627Z,100189.84
2022-12-07T02:26:29.372Z,100191.66
2022-12-07T02:28:46.805Z,100189.38
2022-12-07T02:30:50.999Z,100178.19
2022-12-07T02:33:01.599Z,100181.22
2022-12-07T02:35:10.775Z,100174.00
2022-12-07T02:37:43.675Z,100177.00
2022-12-07T02:39:52.499Z,100177.44
2022-12-07T02:41:59.690Z,100171.69
2022-12-07T02:44:23.842Z,100181.31
2022-12-07T02:46:31.084Z,100172.31
2022-12-07T02:48:34.863Z,100181.53
2022-12-07T02:50:36.698Z,100172.63
2022-12-07T02:52:38.486Z,100151.81
2022-12-07T02:54:44.356Z,100167.31
2022-12-07T02:57:02.569Z,100163.94
2022-12-07T02:59:21.039Z,100162.06
2022-12-07T03:01:46.778Z,100161.22
2022-12-07T03:03:59.174Z,100155.59
2022-12-07T03:06:08.875Z,100162.06
2022-12-07T03:08:38.187Z,100165.84
2022-12-07T03:10:55.713Z,100161.34
2022-12-07T03:13:03.498Z,100161.31
2022-12-07T03:15:17.404Z,100157.88
2022-12-07T03:17:26.118Z,100160.19
2022-12-07T03:19:28.603Z,100152.03
2022-12-07T03:21:43.369Z,100151.31
2022-12-07T03:23:51.168Z,100135.94
2022-12-07T03:26:00.650Z,100144.31
2022-12-07T03:28:07.179Z,100141.78
2022-12-07T03:30:14.372Z,100142.94
2022-12-07T03:32:32.152Z,100145.84
2022-12-07T03:34:58.477Z,100143.47
2022-12-07T03:37:13.585Z,100147.53
2022-12-07T03:39:21.165Z,100143.88
2022-12-07T03:41:32.676Z,100146.78
2022-12-07T03:43:35.726Z,100144.63
2022-12-07T03:45:43.431Z,100141.91
2022-12-07T03:47:56.086Z,100140.94
2022-12-07T03:50:12.084Z,100119.53
2022-12-07T03:52:25.744Z,100126.34
2022-12-07T03:54:49.020Z,100132.69
2022-12-07T03:56:52.007Z,100126.75
2022-12-07T03:58:55.080Z,100124.22
2022-12-07T04:00:57.033Z,100124.44
2022-12-07T04:02:59.395Z,100121.09
2022-12-07T04:05:01.982Z,100116.50
2022-12-07T04:07:03.865Z,100117.34
2022-12-07T04:09:05.592Z,100114.81
2022-12-07T04:11:07.328Z,100111.38
2022-12-07T04:13:09.061Z,100112.31
2022-12-07T04:15:11.779Z,100116.06
2022-12-07T04:17:13.662Z,100116.50
2022-12-07T04:19:17.378Z,100113.16
2022-12-07T04:21:19.169Z,100102.38
2022-12-07T04:23:20.952Z,100105.72
2022-12-07T04:25:22.765Z,100112.75
2022-12-07T04:27:24.548Z,100108.00
2022-12-07T04:29:26.828Z,100112.09
2022-12-07T04:31:28.787Z,100108.44
2022-12-07T04:33:30.671Z,100107.72
2022-12-07T04:35:32.487Z,100098.09
2022-12-07T04:37:34.224Z,100098.19
2022-12-07T04:39:36.410Z,100095.47
2022-12-07T04:41:38.304Z,100095.34
2022-12-07T04:43:40.043Z,100091.91
2022-12-07T04:45:47.171Z,100092.34
2022-12-07T04:47:49.118Z,100093.16
2022-12-07T04:49:50.854Z,100087.44
2022-12-07T04:51:53.055Z,100087.44
2022-12-07T04:53:55.929Z,100088.28
2022-12-07T04:55:57.624Z,100087.41
2022-12-07T04:57:59.414Z,100092.19
2022-12-07T05:00:01.817Z,100091.16
2022-12-07T05:02:04.027Z,100085.84
2022-12-07T05:04:06.897Z,100064.63
2022-12-07T05:06:13.241Z,100072.16
2022-12-07T05:08:15.425Z,100074.25
2022-12-07T05:10:18.349Z,100078.00
2022-12-07T05:12:20.235Z,100070.69
2022-12-07T05:14:22.431Z,100073.28
2022-12-07T05:16:24.717Z,100066.28
2022-12-07T05:18:26.873Z,100069.94
2022-12-07T05:20:28.597Z,100074.78
2022-12-07T05:22:30.382Z,100071.31
2022-12-07T05:24:32.142Z,100063.56
2022-12-07T05:26:34.010Z,100069.41
2022-12-07T05:28:35.918Z,100069.09
2022-12-07T05:30:37.784Z,100073.59
2022-12-07T05:32:39.516Z,100069.00
2022-12-07T05:34:43.374Z,100066.72
2022-12-07T05:36:45.180Z,100068.16
2022-12-07T05:38:47.224Z,100070.88
2022-12-07T05:40:49.163Z,100074.66
2022-12-07T05:42:50.961Z,100066.59
2022-12-07T05:44:52.663Z,100073.00
2022-12-07T05:46:54.388Z,100076.75
2022-12-07T05:48:56.146Z,100069.94
2022-12-07T05:50:58.093Z,100067.44
2022-12-07T05:52:59.926Z,100069.94
2022-12-07T05:55:01.653Z,100064.13
2022-12-07T05:57:03.651Z,100054.81
2022-12-07T05:59:05.632Z,100067.78
2022-12-07T06:01:07.313Z,100070.47
2022-12-07T06:03:09.198Z,100071.13
2022-12-07T06:05:11.047Z,100063.16
2022-12-07T06:07:14.839Z,100067.03
2022-12-07T06:09:16.853Z,100060.31
2022-12-07T06:11:19.052Z,100066.59
2022-12-07T06:13:20.741Z,100056.88
2022-12-07T06:15:22.617Z,100062.09
2022-12-07T06:17:25.043Z,100064.41
2022-12-07T06:19:26.846Z,100069.50
2022-12-07T06:21:28.653Z,100064.28
2022-12-07T06:23:30.483Z,100065.22
2022-12-07T06:25:32.261Z,100068.81
2022-12-07T06:27:34.264Z,100065.22
2022-12-07T06:29:36.268Z,100051.00
2022-12-07T06:31:38.649Z,100059.19
2022-12-07T06:33:40.654Z,100061.47
2022-12-07T06:35:42.446Z,100068.38
2022-12-07T06:37:44.523Z,100063.34
2022-12-07T06:39:46.525Z,100064.38
2022-12-07T06:41:48.570Z,100052.03
2022-12-07T06:43:55.780Z,100066.03
2022-12-07T06:45:58.268Z,100056.03
2022-12-07T06:48:00.236Z,100067.28
2022-12-07T06:50:02.423Z,100069.78
2022-12-07T06:52:04.850Z,100065.28
2022-12-07T06:54:06.646Z,100078.38
2022-12-07T06:56:08.585Z,100051.63
2022-12-07T06:58:10.379Z,100065.81
2022-12-07T07:00:17.013Z,100072.94
2022-12-07T07:02:23.299Z,100055.72
2022-12-07T07:04:25.275Z,100069.81
2022-12-07T07:06:27.472Z,100074.81
2022-12-07T07:08:29.308Z,100068.56
2022-12-07T07:10:31.105Z,100077.78
2022-12-07T07:12:33.098Z,100065.47
2022-12-07T07:14:34.817Z,100071.19
2022-12-07T07:16:36.630Z,100081.19
2022-12-07T07:18:38.815Z,100074.66
2022-12-07T07:20:40.533Z,100083.97
2022-12-07T07:22:42.317Z,100070.47
2022-12-07T07:24:44.307Z,100084.28
2022-12-07T07:26:45.990Z,100091.06
2022-12-07T07:28:47.729Z,100078.97
2022-12-07T07:30:49.863Z,100084.19
2022-12-07T07:32:51.878Z,100074.03
2022-12-07T07:34:53.656Z,100084.34
2022-12-07T07:36:55.776Z,100078.97
2022-12-07T07:38:57.495Z,100090.84
2022-12-07T07:40:59.214Z,100088.78
2022-12-07T07:43:01.108Z,100088.59
2022-12-07T07:45:02.901Z,100094.50
2022-12-07T07:47:04.824Z,100092.34
2022-12-07T07:49:06.884Z,100096.19
2022-12-07T07:51:09.031Z,100105.19
2022-12-07T07:53:10.794Z,100083.22
2022-12-07T07:55:14.170Z,100095.59
2022-12-07T07:57:17.758Z,100091.50
2022-12-07T07:59:19.348Z,100106.97
2022-12-07T08:01:21.501Z,100101.88
2022-12-07T08:03:23.283Z,100107.19
2022-12-07T08:05:24.999Z,100100.91
2022-12-07T08:07:28.602Z,100098.59
2022-12-07T08:09:30.163Z,100097.66
2022-12-07T08:11:31.890Z,100103.81
2022-12-07T08:13:33.958Z,100103.31
2022-12-07T08:15:38.696Z,100103.31
2022-12-07T08:17:40.502Z,100101.94
2022-12-07T08:19:42.572Z,100104.66
2022-12-07T08:21:44.784Z,100114.50
2022-12-07T08:23:46.482Z,100106.66
2022-12-07T08:25:48.603Z,100111.06
2022-12-07T08:27:50.928Z,100089.41
2022-12-07T08:29:52.648Z,100109.59
2022-12-07T08:31:54.909Z,100117.56
2022-12-07T08:33:57.288Z,100117.31
2022-12-07T08:36:13.191Z,100111.66
2022-12-07T08:38:15.254Z,100117.31
2022-12-07T08:40:17.011Z,100111.91
2022-12-07T08:42:18.717Z,100117.31
2022-12-07T08:44:20.586Z,100120.97
2022-12-07T08:46:37.371Z,100117.72
2022-12-07T08:48:46.865Z,100104.91
2022-12-07T08:50:50.197Z,100113.69
2022-12-07T08:52:58.697Z,100110.53
2022-12-07T08:55:01.431Z,100110.31
2022-12-07T08:57:05.988Z,100115.97
2022-12-07T08:59:08.132Z,100106.56
2022-12-07T09:01:09.971Z,100107.91
2022-12-07T09:03:12.087Z,100106.03
2022-12-07T09:05:16.768Z,100103.72
2022-12-07T09:07:19.068Z,100092.09
2022-12-07T09:09:21.086Z,100070.28
2022-12-07T09:11:28.303Z,100085.72
2022-12-07T09:13:30.682Z,100084.88
2022-12-07T09:15:32.770Z,100078.44
2022-12-07T09:17:35.719Z,100085.63
2022-12-07T09:19:38.504Z,100086.03
2022-12-07T09:21:40.526Z,100097.81
2022-12-07T09:23:45.292Z,100091.88
2022-12-07T09:25:47.091Z,100080.28
2022-12-07T09:27:49.004Z,100081.69
2022-12-07T09:29:50.739Z,100078.75
2022-12-07T09:31:53.590Z,100086.50
2022-12-07T09:34:02.277Z,100069.44
2022-12-07T09:36:05.063Z,100083.25
2022-12-07T09:38:06.830Z,100085.81
2022-12-07T09:40:09.074Z,100079.81
2022-12-07T09:42:40.756Z,100075.94
2022-12-07T09:44:42.733Z,100072.91
2022-12-07T09:46:46.009Z,100071.00
2022-12-07T09:48:49.426Z,100076.09
2022-12-07T09:50:53.410Z,100074.19
2022-12-07T09:53:22.698Z,100068.28
2022-12-07T09:55:28.655Z,100062.59
2022-12-07T09:57:37.132Z,100064.19
2022-12-07T09:59:39.507Z,100066.91
2022-12-07T10:01:41.424Z,100060.34
2022-12-07T10:04:11.536Z,100057.63
2022-12-07T10:06:14.285Z,100067.00
2022-12-07T10:08:16.418Z,100060.25
2022-12-07T10:10:25.446Z,100062.84
2022-12-07T10:12:27.341Z,100065.06
2022-12-07T10:15:05.114Z,100057.00
2022-12-07T10:16:53.284Z,100059.50
2022-12-07T10:18:55.978Z,100054.72
2022-12-07T10:21:13.215Z,100034.00
2022-12-07T10:23:17.682Z,100052.94
2022-12-07T10:25:21.613Z,100053.88
2022-12-07T10:27:32.984Z,100048.09
2022-12-07T10:29:38.329Z,100045.84
2022-12-07T10:31:41.634Z,100039.03
2022-12-07T10:34:01.106Z,100047.41
2022-12-07T10:36:17.187Z,100043.38
2022-12-07T10:38:19.029Z,100049.63
2022-12-07T10:40:30.733Z,100039.00
2022-12-07T10:42:32.929Z,100028.63
2022-12-07T10:44:35.626Z,100016.25
2022-12-07T10:46:51.056Z,100028.56
2022-12-07T10:49:13.616Z,100033.47
2022-12-07T10:51:39.770Z,100027.75
2022-12-07T10:54:20.102Z,100034.06
2022-12-07T10:56:30.787Z,100024.53
2022-12-07T10:59:01.903Z,100024.31
2022-12-07T11:01:29.677Z,100028.69
2022-12-07T11:03:34.314Z,100026.81
2022-12-07T11:05:53.919Z,100019.91
2022-12-07T11:08:42.199Z,100020.59
2022-12-07T11:10:59.151Z,100013.09
2022-12-07T11:13:15.918Z,100010.72
2022-12-07T11:15:30.639Z,100005.09
2022-12-07T11:17:43.579Z,100011.06
2022-12-07T11:19:56.366Z,100009.16
2022-12-07T11:22:34.296Z,100007.97
2022-12-07T11:24:56.004Z,100006.28
2022-12-07T11:27:27.819Z,100006.50
2022-12-07T11:29:45.360Z,99998.91
2022-12-07T11:32:05.966Z,99996.88
2022-12-07T11:34:20.922Z,99993.88
2022-12-07T11:36:38.096Z,99988.03
2022-12-07T11:38:50.677Z,99991.34
2022-12-07T11:41:01.641Z,99990.06
2022-12-07T11:43:26.906Z,99989.13
2022-12-07T11:45:34.273Z,99983.19
2022-12-07T11:47:38.247Z,99975.00
2022-12-07T11:49:57.502Z,99984.78
2022-12-07T11:52:03.344Z,99986.25
2022-12-07T11:54:23.554Z,99980.44
2022-12-07T11:56:28.989Z,99987.88
2022-12-07T11:58:45.891Z,99975.44
2022-12-07T12:00:48.253Z,99980.09
2022-12-07T12:03:09.241Z,99965.22
2022-12-07T12:05:18.852Z,99967.53
2022-12-07T12:10:15.246Z,99967.44
2022-12-07T12:15:49.538Z,99955.19
2022-12-07T12:18:20.761Z,99959.38
2022-12-07T12:20:45.486Z,99955.91
2022-12-07T12:23:00.969Z,99949.94
2022-12-07T12:25:07.317Z,99954.25
2022-12-07T12:27:28.791Z,99952.09
2022-12-07T12:29:40.561Z,99950.41
2022-12-07T12:31:42.566Z,99954.81
2022-12-07T12:33:59.262Z,99945.31
2022-12-07T12:36:16.517Z,99944.91
2022-12-07T12:38:28.553Z,99929.31
2022-12-07T12:40:30.281Z,99952.28
2022-12-07T12:42:48.112Z,99925.00
2022-12-07T12:45:33.100Z,99931.50
2022-12-07T12:47:42.658Z,99946.44
2022-12-07T12:50:04.766Z,99921.34
2022-12-07T12:52:15.560Z,99936.41
2022-12-07T12:54:23.194Z,99914.44
2022-12-07T12:57:00.396Z,99930.63
2022-12-07T12:59:35.936Z,99915.66
2022-12-07T13:01:41.931Z,99914.28
2022-12-07T13:03:54.353Z,99895.50
2022-12-07T13:08:29.370Z,99917.59
2022-12-07T13:10:40.247Z,99931.28
2022-12-07T13:12:42.210Z,99929.44
2022-12-07T13:14:57.387Z,99911.50
2022-12-07T13:16:59.327Z,99919.00
2022-12-07T13:19:01.045Z,99906.66
2022-12-07T13:21:08.649Z,99927.19
2022-12-07T13:23:10.509Z,99923.63
2022-12-07T13:25:24.806Z,99922.78
2022-12-07T13:27:28.085Z,99902.16
2022-12-07T13:29:38.157Z,99914.59
2022-12-07T13:31:51.276Z,99915.47
2022-12-07T13:33:53.466Z,99914.97
2022-12-07T13:35:56.691Z,99918.66
2022-12-07T13:37:58.715Z,99891.97
2022-12-07T13:40:17.110Z,99902.31
2022-12-07T13:42:30.423Z,99907.13
2022-12-07T13:44:41.944Z,99896.09
2022-12-07T13:47:04.865Z,99912.78
2022-12-07T13:49:18.987Z,99896.03
2022-12-07T13:51:26.410Z,99897.13
2022-12-07T13:53:29.038Z,99914.03
2022-12-07T13:55:31.484Z,99916.09
2022-12-07T13:57:36.187Z,99912.25
2022-12-07T13:59:38.965Z,99889.91
2022-12-07T14:01:40.772Z,99907.63
2022-12-07T14:03:42.523Z,99909.16
2022-12-07T14:05:45.784Z,99908.97
2022-12-07T14:08:10.518Z,99905.44
2022-12-07T14:10:50.735Z,99907.09
2022-12-07T14:12:52.528Z,99898.06
2022-12-07T14:14:56.233Z,99893.78
2022-12-07T14:17:14.810Z,99895.56
2022-12-07T14:19:48.571Z,99898.69
2022-12-07T14:22:07.670Z,99902.63
2022-12-07T14:24:20.652Z,99901.03
2022-12-07T14:26:22.483Z,99909.25
2022-12-07T14:28:38.371Z,99906.38
2022-12-07T14:30:42.754Z,99896.25
2022-12-07T14:32:44.645Z,99875.88
2022-12-07T14:35:14.087Z,99901.06
2022-12-07T14:37:16.074Z,99893.41
2022-12-07T14:39:18.091Z,99886.63
2022-12-07T14:41:23.325Z,99891.91
2022-12-07T14:43:25.408Z,99899.81
2022-12-07T14:45:27.207Z,99880.84
2022-12-07T14:49:51.003Z,99892.56
2022-12-07T14:54:18.879Z,99876.72
2022-12-07T14:56:20.770Z,99893.78
2022-12-07T14:58:22.469Z,99893.50
2022-12-07T15:00:26.007Z,99888.69
2022-12-07T15:02:27.895Z,99881.84
2022-12-07T15:04:29.658Z,99879.94
2022-12-07T15:06:31.455Z,99865.00
2022-12-07T15:08:33.304Z,99882.00
2022-12-07T15:10:35.596Z,99864.38
2022-12-07T15:12:37.345Z,99853.75
2022-12-07T15:14:39.218Z,99885.28
2022-12-07T15:17:07.383Z,99883.50
2022-12-07T15:19:27.335Z,99880.00
2022-12-07T15:21:26.758Z,99894.44
2022-12-07T15:23:28.492Z,99861.56
2022-12-07T15:25:30.267Z,99888.16
2022-12-07T15:27:32.257Z,99873.59
2022-12-07T15:29:33.939Z,99890.41
2022-12-07T15:31:55.205Z,99898.03
2022-12-07T15:33:58.721Z,99883.84
2022-12-07T15:36:00.481Z,99879.16
2022-12-07T15:38:02.253Z,99888.56
2022-12-07T15:40:07.728Z,99895.47
2022-12-07T15:42:10.499Z,99845.38
2022-12-07T15:44:15.910Z,99881.56
2022-12-07T15:46:17.823Z,99894.59
2022-12-07T15:48:27.923Z,99888.97
2022-12-07T15:50:29.965Z,99890.00
2022-12-07T15:52:32.538Z,99904.41
2022-12-07T15:54:34.387Z,99881.44
2022-12-07T15:56:36.435Z,99899.38
2022-12-07T15:58:38.391Z,99888.31
2022-12-07T16:00:40.291Z,99897.88
2022-12-07T16:02:42.422Z,99882.84
2022-12-07T16:04:44.280Z,99896.28
2022-12-07T16:06:46.001Z,99889.47
2022-12-07T16:08:48.059Z,99868.00
2022-12-07T16:10:50.215Z,99895.28
2022-12-07T16:12:51.934Z,99901.59
2022-12-07T16:14:53.628Z,99887.31
2022-12-07T16:16:55.923Z,99882.03
2022-12-07T16:18:58.848Z,99895.91
2022-12-07T16:21:00.791Z,99898.25
2022-12-07T16:23:02.763Z,99898.78
2022-12-07T16:25:04.998Z,99897.84
2022-12-07T16:27:06.908Z,99906.06
2022-12-07T16:29:12.070Z,99899.19
2022-12-07T16:31:16.279Z,99911.00
2022-12-07T16:33:18.020Z,99895.03
2022-12-07T16:35:19.802Z,99897.41
2022-12-07T16:37:21.588Z,99905.03
2022-12-07T16:39:23.260Z,99907.09
2022-12-07T16:41:25.120Z,99870.59
2022-12-07T16:43:27.138Z,99886.66
2022-12-07T16:45:28.862Z,99908.97
2022-12-07T16:47:30.755Z,99908.03
2022-12-07T16:49:32.521Z,99897.69
2022-12-07T16:51:34.247Z,99911.19
2022-12-07T16:53:36.898Z,99902.63
2022-12-07T16:55:44.664Z,99907.00
2022-12-07T16:57:46.384Z,99906.06
2022-12-07T16:59:48.046Z,99907.09
2022-12-07T17:01:49.787Z,99907.72
2022-12-07T17:03:51.686Z,99887.38
2022-12-07T17:05:53.780Z,99905.13
2022-12-07T17:07:56.821Z,99899.38
2022-12-07T17:09:58.597Z,99881.34
2022-12-07T17:12:00.418Z,99893.31
2022-12-07T17:14:02.174Z,99904.50
2022-12-07T17:16:07.090Z,99909.50
2022-12-07T17:18:08.984Z,99899.47
2022-12-07T17:20:11.135Z,99904.28
2022-12-07T17:22:12.859Z,99892.53
2022-12-07T17:24:17.528Z,99902.84
2022-12-07T17:26:24.500Z,99913.19
2022-12-07T17:28:26.305Z,99794.00
2022-12-07T17:30:28.025Z,99896.06
2022-12-07T17:32:30.155Z,99911.00
2022-12-07T17:34:31.916Z,99912.75
2022-12-07T17:36:33.701Z,99919.66
2022-12-07T17:38:35.477Z,99907.00
2022-12-07T17:40:37.237Z,99929.22
2022-12-07T17:42:39.037Z,99928.94
2022-12-07T17:44:40.881Z,99910.78
2022-12-07T17:46:43.501Z,99921.13
2022-12-07T17:48:45.417Z,99928.44
2022-12-07T17:50:47.149Z,99941.50
2022-12-07T17:52:48.847Z,99924.88
2022-12-07T17:54:50.556Z,99925.00
2022-12-07T17:56:52.310Z,99928.25
2022-12-07T17:58:54.016Z,99946.81
2022-12-07T18:00:55.965Z,99940.78
2022-12-07T18:02:57.813Z,99946.81
2022-12-07T18:05:00.390Z,99920.09
2022-12-07T18:07:02.407Z,99939.41
2022-12-07T18:09:04.185Z,99947.16
2022-12-07T18:11:07.399Z,99936.81
2022-12-07T18:13:09.177Z,99937.41
2022-12-07T18:15:11.040Z,99923.75
2022-12-07T18:17:12.847Z,99920.84
2022-12-07T18:19:14.971Z,99942.13
2022-12-07T18:21:28.359Z,99940.56
2022-12-07T18:23:30.253Z,99944.53
2022-12-07T18:25:32.154Z,99952.88
2022-12-07T18:27:33.984Z,99925.22
2022-12-07T18:29:35.694Z,99950.38
2022-12-07T18:31:37.746Z,99947.03
2022-12-07T18:33:40.356Z,99950.47
2022-12-07T18:35:42.044Z,99947.34
2022-12-07T18:37:43.764Z,99940.16
2022-12-07T18:39:45.579Z,99955.38
2022-12-07T18:41:47.882Z,99940.97
2022-12-07T18:43:50.054Z,99948.19
2022-12-07T18:45:55.947Z,99954.69
2022-12-07T18:47:58.371Z,99932.13
2022-12-07T18:50:00.423Z,99942.22
2022-12-07T18:52:02.109Z,99956.97
2022-12-07T18:54:03.837Z,99955.38
2022-12-07T18:56:08.754Z,99954.97
2022-12-07T18:58:10.487Z,99924.91
2022-12-07T19:00:12.761Z,99938.69
2022-12-07T19:02:14.616Z,99957.72
2022-12-07T19:04:16.983Z,99949.75
2022-12-07T19:06:18.660Z,99949.75
2022-12-07T19:08:20.672Z,99953.94
2022-12-07T19:10:22.379Z,99961.66
2022-12-07T19:12:24.214Z,99944.53
2022-12-07T19:14:29.193Z,99970.94
2022-12-07T19:16:31.201Z,99943.78
2022-12-07T19:18:32.989Z,99969.44
2022-12-07T19:20:34.828Z,99960.19
2022-12-07T19:22:36.527Z,99956.53
2022-12-07T19:24:38.759Z,99988.03
2022-12-07T19:26:40.790Z,99971.97
2022-12-07T19:28:42.478Z,99978.75
2022-12-07T19:30:44.221Z,99970.28
2022-12-07T19:32:45.927Z,99980.22
2022-12-07T19:34:47.971Z,99983.25
2022-12-07T19:36:49.861Z,99997.34
2022-12-07T19:38:51.802Z,99991.28
2022-12-07T19:40:53.471Z,100001.97
2022-12-07T19:42:55.300Z,99987.44
2022-12-07T19:44:57.045Z,100001.88
2022-12-07T19:47:04.491Z,100005.94
2022-12-07T19:49:06.816Z,100004.16
2022-12-07T19:51:08.647Z,100005.84
2022-12-07T19:53:10.322Z,100001.75
2022-12-07T19:55:12.219Z,100005.84
2022-12-07T19:57:14.223Z,99996.31
2022-12-07T19:59:17.052Z,100013.56
2022-12-07T20:01:18.994Z,100021.91
2022-12-07T20:03:20.899Z,100019.91
2022-12-07T20:05:22.620Z,100018.66
2022-12-07T20:07:24.296Z,100008.91
2022-12-07T20:09:26.056Z,100008.38
2022-12-07T20:11:27.780Z,100017.88
2022-12-07T20:13:29.441Z,100018.63
2022-12-07T20:15:31.273Z,100020.59
2022-12-07T20:17:33.693Z,100022.88
2022-12-07T20:19:36.719Z,100013.56
2022-12-07T20:21:38.984Z,100027.50
2022-12-07T20:23:41.117Z,100020.59
2022-12-07T20:25:42.815Z,100028.63
2022-12-07T20:27:44.550Z,100010.66
2022-12-07T20:29:46.260Z,100030.44
2022-12-07T20:31:49.270Z,100030.84
2022-12-07T20:33:51.147Z,100030.03
2022-12-07T20:35:53.928Z,100015.38
2022-12-07T20:37:55.780Z,100011.03
2022-12-07T20:39:57.666Z,100020.25
2022-12-07T20:41:59.353Z,100036.22
2022-12-07T20:44:01.434Z,100023.44
2022-12-07T20:46:03.271Z,100028.28
2022-12-07T20:48:05.119Z,100031.78
2022-12-07T20:50:07.571Z,100010.41
2022-12-07T20:52:09.325Z,100031.44
2022-12-07T20:54:11.684Z,100043.72
2022-12-07T20:56:28.203Z,100034.34
2022-12-07T20:58:30.007Z,100020.13
2022-12-07T21:00:31.818Z,100020.66
2022-12-07T21:02:34.537Z,99996.13
2022-12-07T21:04:36.248Z,100025.69
2022-12-07T21:06:38.093Z,100032.50
2022-12-07T21:08:39.900Z,100022.09
2022-12-07T21:10:41.632Z,100033.88
2022-12-07T21:12:43.521Z,100039.09
2022-12-07T21:14:45.283Z,100026.94
2022-12-07T21:16:47.106Z,100017.28
2022-12-07T21:18:49.370Z,99990.50
2022-12-07T21:20:51.170Z,100042.88
2022-12-07T21:22:52.943Z,100040.50
2022-12-07T21:24:54.638Z,100045.09
2022-12-07T21:26:56.549Z,100026.28
2022-12-07T21:28:58.375Z,100035.06
2022-12-07T21:31:15.286Z,100037.50
2022-12-07T21:33:17.224Z,100037.09
2022-12-07T21:35:18.930Z,100032.09
2022-12-07T21:37:20.598Z,100044.88
2022-12-07T21:39:22.472Z,100034.09
2022-12-07T21:41:29.853Z,100052.19
2022-12-07T21:43:31.575Z,100046.16
2022-12-07T21:45:33.830Z,100057.56
2022-12-07T21:47:35.722Z,100036.47
2022-12-07T21:49:37.426Z,100035.97
2022-12-07T21:51:40.791Z,100058.25
2022-12-07T21:53:43.456Z,100053.00
2022-12-07T21:55:45.668Z,100052.28
2022-12-07T21:57:47.558Z,100051.91
2022-12-07T21:59:49.382Z,100026.56
2022-12-07T22:01:52.385Z,100049.44
2022-12-07T22:03:54.441Z,100042.19
2022-12-07T22:06:02.345Z,100032.34
2022-12-07T22:08:05.212Z,100048.81
2022-12-07T22:10:07.671Z,100058.31
2022-12-07T22:12:09.423Z,100039.94
2022-12-07T22:14:11.244Z,100047.53
2022-12-07T22:16:13.033Z,100042.16
2022-12-07T22:18:14.800Z,100032.19
2022-12-07T22:20:19.981Z,100042.16
2022-12-07T22:22:21.657Z,100046.34
2022-12-07T22:24:23.429Z,100059.81
2022-12-07T22:26:25.865Z,100032.56
2022-12-07T22:28:27.544Z,100068.94
2022-12-07T22:30:29.281Z,100072.56
2022-12-07T22:34:52.782Z,100018.56
2022-12-07T22:36:54.530Z,100051.63
2022-12-07T22:38:56.654Z,100047.00
2022-12-07T22:40:59.134Z,100047.00
2022-12-07T22:43:00.915Z,100054.22
2022-12-07T22:45:02.907Z,100073.50
2022-12-07T22:47:05.037Z,100071.09
2022-12-07T22:49:07.550Z,100066.19
2022-12-07T22:51:29.798Z,100068.50
2022-12-07T22:53:31.943Z,100056.28
2022-12-07T22:55:33.625Z,100059.00
2022-12-07T22:57:35.293Z,100070.19
2022-12-07T22:59:36.995Z,100052.22
2022-12-07T23:01:38.757Z,100059.09
2022-12-07T23:03:40.866Z,100083.56
2022-12-07T23:05:44.988Z,100085.97
2022-12-07T23:07:46.989Z,100050.00
2022-12-07T23:09:48.717Z,100077.06
2022-12-07T23:11:50.693Z,100066.06
2022-12-07T23:13:52.513Z,100022.16
2022-12-07T23:15:54.298Z,100052.59
2022-12-07T23:17:56.092Z,100076.06
2022-12-07T23:19:58.005Z,100050.66
2022-12-07T23:21:59.766Z,100071.78
2022-12-07T23:24:01.735Z,100064.81
2022-12-07T23:26:06.148Z,100078.75
2022-12-07T23:28:07.855Z,100077.72
2022-12-07T23:30:10.025Z,100045.53
2022-12-07T23:32:11.710Z,100063.38
2022-12-07T23:34:19.930Z,100054.47
2022-12-07T23:36:24.820Z,100081.31
2022-12-07T23:38:26.486Z,100081.72
2022-12-07T23:40:28.259Z,100062.72
2022-12-07T23:42:30.119Z,100066.56
2022-12-07T23:44:31.856Z,100067.63
2022-12-07T23:46:33.777Z,100079.25
2022-12-07T23:48:36.473Z,100083.34
2022-12-07T23:50:38.261Z,100047.00
2022-12-07T23:52:39.986Z,100080.44
2022-12-07T23:54:41.846Z,100054.59
2022-12-07T23:56:43.761Z,100082.75
2022-12-07T23:58:46.416Z,100069.66
